createdAt,value
2023-03-17T00:00:54.872Z,9.50
2023-03-17T00:02:00.516Z,9.50
2023-03-17T00:03:04.718Z,9.50
2023-03-17T00:04:11.881Z,9.50
2023-03-17T00:05:23.246Z,9.50
2023-03-17T00:06:31.280Z,9.40
2023-03-17T00:07:33.738Z,9.40
2023-03-17T00:08:37.749Z,9.40
2023-03-17T00:09:40.834Z,9.40
2023-03-17T00:10:44.764Z,9.40
2023-03-17T00:11:47.816Z,9.30
2023-03-17T00:12:53.441Z,9.30
2023-03-17T00:13:56.087Z,9.30
2023-03-17T00:14:59.775Z,9.30
2023-03-17T00:16:04.886Z,9.30
2023-03-17T00:17:14.268Z,9.30
2023-03-17T00:18:20.544Z,9.30
2023-03-17T00:19:31.063Z,9.20
2023-03-17T00:20:35.130Z,9.20
2023-03-17T00:21:38.956Z,9.20
2023-03-17T00:22:42.932Z,9.20
2023-03-17T00:23:49.976Z,9.20
2023-03-17T00:24:53.883Z,9.20
2023-03-17T00:25:57.418Z,9.20
2023-03-17T00:27:00.906Z,9.20
2023-03-17T00:28:04.831Z,9.20
2023-03-17T00:29:08.565Z,9.20
2023-03-17T00:30:13.024Z,9.10
2023-03-17T00:31:20.962Z,9.10
2023-03-17T00:32:25.445Z,9.10
2023-03-17T00:33:33.266Z,9.10
2023-03-17T00:34:36.868Z,9.10
2023-03-17T00:35:40.768Z,9.10
2023-03-17T00:36:46.911Z,9.10
2023-03-17T00:37:52.539Z,9.10
2023-03-17T00:38:57.364Z,9.10
2023-03-17T00:40:01.021Z,9.10
2023-03-17T00:41:04.673Z,9.10
2023-03-17T00:42:08.001Z,9.10
2023-03-17T00:43:12.655Z,9.10
2023-03-17T00:44:15.580Z,9.10
2023-03-17T00:45:21.343Z,9.10
2023-03-17T00:46:28.553Z,9.10
2023-03-17T00:47:35.212Z,9.10
2023-03-17T00:48:38.329Z,9.10
2023-03-17T00:49:41.928Z,9.10
2023-03-17T00:50:47.899Z,9.00
2023-03-17T00:51:52.741Z,9.00
2023-03-17T00:52:58.216Z,9.00
2023-03-17T00:54:01.922Z,9.00
2023-03-17T00:55:06.298Z,9.00
2023-03-17T00:56:15.505Z,9.00
2023-03-17T00:57:18.595Z,9.00
2023-03-17T00:58:28.893Z,9.00
2023-03-17T00:59:39.046Z,9.00
2023-03-17T01:00:47.462Z,9.00
2023-03-17T01:01:50.284Z,8.90
2023-03-17T01:02:57.385Z,9.00
2023-03-17T01:03:59.955Z,8.90
2023-03-17T01:05:06.673Z,8.90
2023-03-17T01:06:13.180Z,8.90
2023-03-17T01:07:17.057Z,8.90
2023-03-17T01:08:23.638Z,8.90
2023-03-17T01:09:29.021Z,8.90
2023-03-17T01:10:33.535Z,8.90
2023-03-17T01:11:37.325Z,8.90
2023-03-17T01:12:40.106Z,8.90
2023-03-17T01:13:43.922Z,8.90
2023-03-17T01:14:47.015Z,8.90
2023-03-17T01:15:53.834Z,8.90
2023-03-17T01:16:56.411Z,8.90
2023-03-17T01:18:02.868Z,8.90
2023-03-17T01:19:06.269Z,8.90
2023-03-17T01:20:17.886Z,8.90
2023-03-17T01:21:20.709Z,8.90
2023-03-17T01:22:24.690Z,8.90
2023-03-17T01:23:27.442Z,8.90
2023-03-17T01:24:31.917Z,8.90
2023-03-17T01:25:34.591Z,8.90
2023-03-17T01:26:39.246Z,8.90
2023-03-17T01:27:42.538Z,8.80
2023-03-17T01:28:48.034Z,8.80
2023-03-17T01:29:53.910Z,8.80
2023-03-17T01:30:57.781Z,8.80
2023-03-17T01:32:00.474Z,8.80
2023-03-17T01:33:07.145Z,8.80
2023-03-17T01:34:10.274Z,8.80
2023-03-17T01:35:14.171Z,8.80
2023-03-17T01:36:17.828Z,8.80
2023-03-17T01:37:21.436Z,8.80
2023-03-17T01:38:24.673Z,8.80
2023-03-17T01:39:28.522Z,8.80
2023-03-17T01:40:34.898Z,8.80
2023-03-17T01:41:40.205Z,8.70
2023-03-17T01:42:48.927Z,8.70
2023-03-17T01:43:52.740Z,8.70
2023-03-17T01:45:01.044Z,8.70
2023-03-17T01:46:25.891Z,8.70
2023-03-17T01:47:32.067Z,8.70
2023-03-17T01:48:43.008Z,8.70
2023-03-17T01:49:49.039Z,8.70
2023-03-17T01:50:53.834Z,8.60
2023-03-17T01:52:06.269Z,8.60
2023-03-17T01:53:11.798Z,8.60
2023-03-17T01:54:18.718Z,8.60
2023-03-17T01:55:23.073Z,8.60
2023-03-17T01:56:25.995Z,8.60
2023-03-17T01:57:33.929Z,8.60
2023-03-17T01:58:37.338Z,8.60
2023-03-17T01:59:47.686Z,8.60
2023-03-17T02:00:50.782Z,8.60
2023-03-17T02:01:59.382Z,8.60
2023-03-17T02:03:02.243Z,8.60
2023-03-17T02:04:09.560Z,8.60
2023-03-17T02:05:17.075Z,8.60
2023-03-17T02:06:21.004Z,8.60
2023-03-17T02:07:24.642Z,8.60
2023-03-17T02:08:28.180Z,8.60
2023-03-17T02:09:31.769Z,8.60
2023-03-17T02:10:35.462Z,8.60
2023-03-17T02:11:38.960Z,8.60
2023-03-17T02:12:45.574Z,8.60
2023-03-17T02:13:48.188Z,8.60
2023-03-17T02:14:51.899Z,8.60
2023-03-17T02:15:54.605Z,8.60
2023-03-17T02:16:58.499Z,8.60
2023-03-17T02:18:01.111Z,8.60
2023-03-17T02:19:06.138Z,8.60
2023-03-17T02:20:46.727Z,8.60
2023-03-17T02:21:55.914Z,8.60
2023-03-17T02:22:59.010Z,8.60
2023-03-17T02:24:05.467Z,8.60
2023-03-17T02:25:09.408Z,8.60
2023-03-17T02:26:12.562Z,8.60
2023-03-17T02:27:21.263Z,8.60
2023-03-17T02:28:29.989Z,8.60
2023-03-17T02:29:37.930Z,8.60
2023-03-17T02:30:40.976Z,8.60
2023-03-17T02:31:46.057Z,8.60
2023-03-17T02:32:48.884Z,8.60
2023-03-17T02:33:52.517Z,8.60
2023-03-17T02:34:55.118Z,8.60
2023-03-17T02:35:58.705Z,8.60
2023-03-17T02:37:02.576Z,8.60
2023-03-17T02:38:07.409Z,8.60
2023-03-17T02:39:09.963Z,8.60
2023-03-17T02:40:15.107Z,8.60
2023-03-17T02:41:17.764Z,8.60
2023-03-17T02:42:22.098Z,8.70
2023-03-17T02:43:24.744Z,8.70
2023-03-17T02:44:33.039Z,8.60
2023-03-17T02:45:36.764Z,8.60
2023-03-17T02:46:40.352Z,8.70
2023-03-17T02:47:42.998Z,8.70
2023-03-17T02:48:47.620Z,8.70
2023-03-17T02:49:50.695Z,8.70
2023-03-17T02:50:54.406Z,8.70
2023-03-17T02:51:57.447Z,8.70
2023-03-17T02:53:02.382Z,8.70
2023-03-17T02:54:09.280Z,8.70
2023-03-17T02:55:14.301Z,8.60
2023-03-17T02:56:17.060Z,8.70
2023-03-17T02:57:21.525Z,8.70
2023-03-17T02:58:24.145Z,8.70
2023-03-17T02:59:27.967Z,8.70
2023-03-17T03:00:30.792Z,8.70
2023-03-17T03:01:34.830Z,8.70
2023-03-17T03:02:37.565Z,8.70
2023-03-17T03:03:41.479Z,8.70
2023-03-17T03:04:44.669Z,8.70
2023-03-17T03:05:49.296Z,8.70
2023-03-17T03:06:52.452Z,8.70
2023-03-17T03:07:56.108Z,8.70
2023-03-17T03:09:01.016Z,8.70
2023-03-17T03:10:04.144Z,8.70
2023-03-17T03:11:28.259Z,8.70
2023-03-17T03:12:36.285Z,8.70
2023-03-17T03:13:39.913Z,8.70
2023-03-17T03:14:42.603Z,8.70
2023-03-17T03:15:46.618Z,8.70
2023-03-17T03:16:49.230Z,8.60
2023-03-17T03:17:52.945Z,8.60
2023-03-17T03:18:56.922Z,8.60
2023-03-17T03:20:00.175Z,8.60
2023-03-17T03:21:04.385Z,8.60
2023-03-17T03:22:07.139Z,8.60
2023-03-17T03:23:11.012Z,8.60
2023-03-17T03:24:15.227Z,8.60
2023-03-17T03:25:19.040Z,8.60
2023-03-17T03:26:21.987Z,8.60
2023-03-17T03:27:25.796Z,8.60
2023-03-17T03:28:28.334Z,8.60
2023-03-17T03:29:32.111Z,8.60
2023-03-17T03:30:36.489Z,8.60
2023-03-17T03:31:40.019Z,8.60
2023-03-17T03:32:42.829Z,8.60
2023-03-17T03:33:46.790Z,8.60
2023-03-17T03:34:49.797Z,8.60
2023-03-17T03:35:55.539Z,8.60
2023-03-17T03:36:58.021Z,8.60
2023-03-17T03:38:02.185Z,8.60
2023-03-17T03:39:05.810Z,8.60
2023-03-17T03:40:12.785Z,8.60
2023-03-17T03:41:16.356Z,8.60
2023-03-17T03:42:19.130Z,8.60
2023-03-17T03:43:24.248Z,8.60
2023-03-17T03:44:27.338Z,8.60
2023-03-17T03:45:31.226Z,8.60
2023-03-17T03:46:34.046Z,8.60
2023-03-17T03:47:37.937Z,8.70
2023-03-17T03:48:40.712Z,8.60
2023-03-17T03:49:44.354Z,8.60
2023-03-17T03:50:48.072Z,8.60
2023-03-17T03:51:50.553Z,8.60
2023-03-17T03:52:54.335Z,8.60
2023-03-17T03:53:56.952Z,8.60
2023-03-17T03:55:00.444Z,8.60
2023-03-17T03:56:05.270Z,8.60
2023-03-17T03:57:08.839Z,8.60
2023-03-17T03:58:11.618Z,8.60
2023-03-17T03:59:15.159Z,8.60
2023-03-17T04:00:18.826Z,8.60
2023-03-17T04:01:22.953Z,8.60
2023-03-17T04:02:25.689Z,8.60
2023-03-17T04:03:29.303Z,8.60
2023-03-17T04:04:31.905Z,8.60
2023-03-17T04:05:36.014Z,8.60
2023-03-17T04:06:39.898Z,8.60
2023-03-17T04:07:43.450Z,8.60
2023-03-17T04:08:46.139Z,8.60
2023-03-17T04:09:50.403Z,8.60
2023-03-17T04:10:53.008Z,8.60
2023-03-17T04:11:58.130Z,8.60
2023-03-17T04:13:01.397Z,8.60
2023-03-17T04:14:06.582Z,8.60
2023-03-17T04:15:14.163Z,8.60
2023-03-17T04:16:17.837Z,8.60
2023-03-17T04:17:20.591Z,8.60
2023-03-17T04:18:24.299Z,8.60
2023-03-17T04:19:27.527Z,8.60
2023-03-17T04:20:31.326Z,8.60
2023-03-17T04:21:34.122Z,8.60
2023-03-17T04:22:37.932Z,8.60
2023-03-17T04:23:40.861Z,8.60
2023-03-17T04:24:44.466Z,8.60
2023-03-17T04:25:48.041Z,8.60
2023-03-17T04:26:50.647Z,8.60
2023-03-17T04:27:55.773Z,8.50
2023-03-17T04:28:58.801Z,8.60
2023-03-17T04:30:03.613Z,8.60
2023-03-17T04:31:07.721Z,8.60
2023-03-17T04:32:13.432Z,8.60
2023-03-17T04:33:16.044Z,8.60
2023-03-17T04:34:20.525Z,8.60
2023-03-17T04:35:23.464Z,8.60
2023-03-17T04:36:27.148Z,8.60
2023-03-17T04:37:32.309Z,8.60
2023-03-17T04:38:36.694Z,8.60
2023-03-17T04:39:40.587Z,8.60
2023-03-17T04:40:43.143Z,8.60
2023-03-17T04:41:46.840Z,8.60
2023-03-17T04:42:49.424Z,8.60
2023-03-17T04:43:54.657Z,8.60
2023-03-17T04:44:57.553Z,8.60
2023-03-17T04:46:01.390Z,8.60
2023-03-17T04:47:04.387Z,8.60
2023-03-17T04:48:08.026Z,8.60
2023-03-17T04:49:10.665Z,8.60
2023-03-17T04:50:15.370Z,8.60
2023-03-17T04:51:18.046Z,8.60
2023-03-17T04:52:21.856Z,8.70
2023-03-17T04:53:24.735Z,8.60
2023-03-17T04:54:29.012Z,8.60
2023-03-17T04:55:31.800Z,8.60
2023-03-17T04:56:36.225Z,8.70
2023-03-17T04:57:39.216Z,8.60
2023-03-17T04:58:43.578Z,8.70
2023-03-17T04:59:48.866Z,8.60
2023-03-17T05:00:52.200Z,8.70
2023-03-17T05:01:56.032Z,8.60
2023-03-17T05:02:59.317Z,8.70
2023-03-17T05:04:03.731Z,8.70
2023-03-17T05:05:07.005Z,8.70
2023-03-17T05:06:11.014Z,8.70
2023-03-17T05:07:14.183Z,8.70
2023-03-17T05:08:18.171Z,8.70
2023-03-17T05:09:20.939Z,8.70
2023-03-17T05:10:24.415Z,8.70
2023-03-17T05:11:27.115Z,8.70
2023-03-17T05:12:30.639Z,8.70
2023-03-17T05:13:33.469Z,8.70
2023-03-17T05:14:37.281Z,8.70
2023-03-17T05:15:41.324Z,8.70
2023-03-17T05:16:47.786Z,8.70
2023-03-17T05:17:50.562Z,8.70
2023-03-17T05:18:55.193Z,8.70
2023-03-17T05:19:57.914Z,8.70
2023-03-17T05:21:01.605Z,8.70
2023-03-17T05:22:05.260Z,8.70
2023-03-17T05:23:08.174Z,8.70
2023-03-17T05:24:12.061Z,8.70
2023-03-17T05:25:14.481Z,8.80
2023-03-17T05:26:18.803Z,8.80
2023-03-17T05:27:22.585Z,8.80
2023-03-17T05:28:27.764Z,8.80
2023-03-17T05:29:30.238Z,8.80
2023-03-17T05:30:36.590Z,8.80
2023-03-17T05:31:40.561Z,8.80
2023-03-17T05:32:44.223Z,8.80
2023-03-17T05:33:49.212Z,8.80
2023-03-17T05:34:53.319Z,8.80
2023-03-17T05:35:56.226Z,8.80
2023-03-17T05:37:00.131Z,8.80
2023-03-17T05:38:02.606Z,8.80
2023-03-17T05:39:06.181Z,8.80
2023-03-17T05:40:10.831Z,8.90
2023-03-17T05:41:14.328Z,8.90
2023-03-17T05:42:17.021Z,8.90
2023-03-17T05:43:22.336Z,8.90
2023-03-17T05:44:24.954Z,8.90
2023-03-17T05:45:28.681Z,8.90
2023-03-17T05:46:32.060Z,8.90
2023-03-17T05:47:37.392Z,8.90
2023-03-17T05:48:40.053Z,8.90
2023-03-17T05:49:43.626Z,8.90
2023-03-17T05:50:46.254Z,8.90
2023-03-17T05:51:50.022Z,8.90
2023-03-17T05:52:53.535Z,8.90
2023-03-17T05:53:57.576Z,8.90
2023-03-17T05:55:00.196Z,8.90
2023-03-17T05:56:04.044Z,8.90
2023-03-17T05:57:07.746Z,8.80
2023-03-17T05:58:11.451Z,8.90
2023-03-17T05:59:15.784Z,8.80
2023-03-17T06:00:21.562Z,8.80
2023-03-17T06:01:24.177Z,8.80
2023-03-17T06:02:28.235Z,8.80
2023-03-17T06:03:33.419Z,8.90
2023-03-17T06:04:36.199Z,8.90
2023-03-17T06:05:39.863Z,8.90
2023-03-17T06:06:42.534Z,8.90
2023-03-17T06:07:54.690Z,8.80
2023-03-17T06:09:05.893Z,8.80
2023-03-17T06:10:10.546Z,8.80
2023-03-17T06:11:15.141Z,8.90
2023-03-17T06:12:18.520Z,8.90
2023-03-17T06:13:22.441Z,8.90
2023-03-17T06:14:27.083Z,8.90
2023-03-17T06:15:31.703Z,8.90
2023-03-17T06:16:34.822Z,8.90
2023-03-17T06:17:39.072Z,8.90
2023-03-17T06:18:43.270Z,8.90
2023-03-17T06:19:49.420Z,8.90
2023-03-17T06:20:54.603Z,8.90
2023-03-17T06:22:03.257Z,8.90
2023-03-17T06:23:07.317Z,8.90
2023-03-17T06:24:13.524Z,9.00
2023-03-17T06:25:17.590Z,8.90
2023-03-17T06:26:20.354Z,9.00
2023-03-17T06:27:25.178Z,9.00
2023-03-17T06:28:32.093Z,9.00
2023-03-17T06:29:49.646Z,9.10
2023-03-17T06:31:00.138Z,9.10
2023-03-17T06:32:20.375Z,9.20
2023-03-17T06:33:25.054Z,9.20
2023-03-17T06:34:39.147Z,9.20
2023-03-17T06:35:43.039Z,9.30
2023-03-17T06:36:46.054Z,9.30
2023-03-17T06:37:50.036Z,9.40
2023-03-17T06:38:52.756Z,9.50
2023-03-17T06:39:56.782Z,9.60
2023-03-17T06:40:59.484Z,9.80
2023-03-17T06:42:05.312Z,10.00
2023-03-17T06:43:09.836Z,10.10
2023-03-17T06:44:13.289Z,10.40
2023-03-17T06:45:17.506Z,10.60
2023-03-17T06:46:20.249Z,10.80
2023-03-17T06:47:25.963Z,11.10
2023-03-17T06:48:28.935Z,11.20
2023-03-17T06:49:34.259Z,11.40
2023-03-17T06:50:38.134Z,11.60
2023-03-17T06:51:41.434Z,11.80
2023-03-17T06:52:46.832Z,11.90
2023-03-17T06:53:50.732Z,12.00
2023-03-17T06:54:54.354Z,12.20
2023-03-17T06:55:58.368Z,12.30
2023-03-17T06:57:01.071Z,12.40
2023-03-17T06:58:05.085Z,12.50
2023-03-17T06:59:07.972Z,12.60
2023-03-17T07:00:14.165Z,12.80
2023-03-17T07:01:17.915Z,12.90
2023-03-17T07:02:21.499Z,13.00
2023-03-17T07:03:25.580Z,13.10
2023-03-17T07:04:29.506Z,13.30
2023-03-17T07:05:33.953Z,13.40
2023-03-17T07:06:37.763Z,13.40
2023-03-17T07:07:41.092Z,13.50
2023-03-17T07:08:44.885Z,13.50
2023-03-17T07:09:48.099Z,13.60
2023-03-17T07:10:51.961Z,13.60
2023-03-17T07:11:54.483Z,13.60
2023-03-17T07:12:59.187Z,13.60
2023-03-17T07:14:03.739Z,13.60
2023-03-17T07:15:09.302Z,13.60
2023-03-17T07:16:13.988Z,13.60
2023-03-17T07:17:18.750Z,13.60
2023-03-17T07:18:21.653Z,13.70
2023-03-17T07:19:25.339Z,13.70
2023-03-17T07:20:28.139Z,13.70
2023-03-17T07:21:32.940Z,13.80
2023-03-17T07:22:35.845Z,13.80
2023-03-17T07:23:39.834Z,13.80
2023-03-17T07:24:43.407Z,13.80
2023-03-17T07:25:47.564Z,13.80
2023-03-17T07:26:50.749Z,13.80
2023-03-17T07:27:54.758Z,13.90
2023-03-17T07:28:57.666Z,13.80
2023-03-17T07:30:04.368Z,13.90
2023-03-17T07:31:08.986Z,13.90
2023-03-17T07:32:13.145Z,13.90
2023-03-17T07:33:17.444Z,13.90
2023-03-17T07:34:22.341Z,13.90
2023-03-17T07:35:24.978Z,13.90
2023-03-17T07:36:28.900Z,13.90
2023-03-17T07:37:33.128Z,13.90
2023-03-17T07:38:37.057Z,13.90
2023-03-17T07:39:40.205Z,13.80
2023-03-17T07:40:43.889Z,13.80
2023-03-17T07:41:53.106Z,13.90
2023-03-17T07:42:56.379Z,13.90
2023-03-17T07:44:00.094Z,14.00
2023-03-17T07:45:03.987Z,14.10
2023-03-17T07:46:08.557Z,14.30
2023-03-17T07:47:12.052Z,14.40
2023-03-17T07:48:16.344Z,14.60
2023-03-17T07:49:33.988Z,14.80
2023-03-17T07:50:44.420Z,15.00
2023-03-17T07:51:47.046Z,15.30
2023-03-17T07:52:52.200Z,15.50
2023-03-17T07:54:03.262Z,15.80
2023-03-17T07:55:10.619Z,16.10
2023-03-17T07:56:14.293Z,16.50
2023-03-17T07:57:18.185Z,16.80
2023-03-17T07:58:21.890Z,17.10
2023-03-17T07:59:25.596Z,17.40
2023-03-17T08:00:29.436Z,17.70
2023-03-17T08:01:33.425Z,18.00
2023-03-17T08:02:37.103Z,18.30
2023-03-17T08:03:41.681Z,18.50
2023-03-17T08:04:45.697Z,18.80
2023-03-17T08:05:55.415Z,19.10
2023-03-17T08:06:58.530Z,19.50
2023-03-17T08:08:05.402Z,19.80
2023-03-17T08:09:09.501Z,20.10
2023-03-17T08:10:15.633Z,20.30
2023-03-17T08:11:19.010Z,20.60
2023-03-17T08:12:23.337Z,20.80
2023-03-17T08:13:26.049Z,21.00
2023-03-17T08:14:29.798Z,21.20
2023-03-17T08:15:32.465Z,21.30
2023-03-17T08:16:37.014Z,21.50
2023-03-17T08:17:40.464Z,21.80
2023-03-17T08:18:44.480Z,22.20
2023-03-17T08:20:52.014Z,22.90
2023-03-17T08:21:54.715Z,23.30
2023-03-17T08:22:58.422Z,23.60
2023-03-17T08:24:04.524Z,23.90
2023-03-17T08:25:09.642Z,24.10
2023-03-17T08:26:16.825Z,24.40
2023-03-17T08:28:25.203Z,25.00
2023-03-17T08:29:29.071Z,25.30
2023-03-17T08:30:33.906Z,25.60
2023-03-17T08:31:36.768Z,25.90
2023-03-17T08:32:41.281Z,26.30
2023-03-17T08:33:49.589Z,26.60
2023-03-17T08:34:55.575Z,26.80
2023-03-17T08:37:03.961Z,27.40
2023-03-17T08:38:07.950Z,27.70
2023-03-17T08:39:13.413Z,28.10
2023-03-17T08:40:20.159Z,28.40
2023-03-17T08:41:27.001Z,28.70
2023-03-17T08:42:30.705Z,29.00
2023-03-17T08:43:34.124Z,29.20
2023-03-17T08:44:37.904Z,29.40
2023-03-17T08:45:41.076Z,29.70
2023-03-17T08:46:45.686Z,29.90
2023-03-17T08:47:51.368Z,30.10
2023-03-17T08:48:57.388Z,30.30
2023-03-17T08:50:01.372Z,30.30
2023-03-17T08:51:06.935Z,30.40
2023-03-17T08:52:11.223Z,30.40
2023-03-17T08:53:14.229Z,30.30
2023-03-17T08:54:19.316Z,30.30
2023-03-17T08:55:22.016Z,30.30
2023-03-17T08:56:26.076Z,30.30
2023-03-17T08:57:28.858Z,30.30
2023-03-17T08:58:32.632Z,30.40
2023-03-17T08:59:35.674Z,30.40
2023-03-17T09:00:40.992Z,30.50
2023-03-17T09:01:45.607Z,30.50
2023-03-17T09:02:50.237Z,30.60
2023-03-17T09:03:56.029Z,30.70
2023-03-17T09:04:59.118Z,30.70
2023-03-17T09:06:04.692Z,30.70
2023-03-17T09:07:09.674Z,30.60
2023-03-17T09:08:13.844Z,30.60
2023-03-17T09:09:20.303Z,30.50
2023-03-17T09:10:23.721Z,30.40
2023-03-17T09:11:31.768Z,30.30
2023-03-17T09:12:34.721Z,30.30
2023-03-17T09:13:42.009Z,30.30
2023-03-17T09:14:47.455Z,30.30
2023-03-17T09:15:52.208Z,30.30
2023-03-17T09:16:56.982Z,30.30
2023-03-17T09:18:03.353Z,30.30
2023-03-17T09:19:07.151Z,30.30
2023-03-17T09:20:11.679Z,30.30
2023-03-17T09:21:17.374Z,30.40
2023-03-17T09:22:19.991Z,30.50
2023-03-17T09:23:24.358Z,30.60
2023-03-17T09:24:28.456Z,30.60
2023-03-17T09:25:32.221Z,30.60
2023-03-17T09:26:35.121Z,30.60
2023-03-17T09:27:38.878Z,30.60
2023-03-17T09:28:42.009Z,30.50
2023-03-17T09:29:46.324Z,30.50
2023-03-17T09:30:50.324Z,30.40
2023-03-17T09:31:55.098Z,30.40
2023-03-17T09:32:58.378Z,30.40
2023-03-17T09:34:02.124Z,30.40
2023-03-17T09:35:05.766Z,30.50
2023-03-17T09:36:11.062Z,30.50
2023-03-17T09:37:13.864Z,30.40
2023-03-17T09:38:18.006Z,30.40
2023-03-17T09:39:22.708Z,30.40
2023-03-17T09:40:35.437Z,30.40
2023-03-17T09:42:11.244Z,30.50
2023-03-17T09:43:30.322Z,30.60
2023-03-17T09:44:59.060Z,30.80
2023-03-17T09:46:18.996Z,31.00
2023-03-17T09:47:48.800Z,31.30
2023-03-17T09:49:00.336Z,31.50
2023-03-17T09:50:11.948Z,31.80
2023-03-17T09:51:20.415Z,32.00
2023-03-17T09:52:29.043Z,32.00
2023-03-17T09:53:37.866Z,31.90
2023-03-17T09:54:41.852Z,31.50
2023-03-17T09:58:11.982Z,29.80
2023-03-17T09:59:33.774Z,29.20
2023-03-17T10:00:36.677Z,28.60
2023-03-17T10:01:44.281Z,28.10
2023-03-17T10:02:47.496Z,27.70
2023-03-17T10:03:51.633Z,27.30
2023-03-17T10:04:54.441Z,27.10
2023-03-17T10:06:16.477Z,26.80
2023-03-17T10:07:27.167Z,26.60
2023-03-17T10:08:35.104Z,26.50
2023-03-17T10:09:44.555Z,26.30
2023-03-17T10:10:57.852Z,26.30
2023-03-17T10:12:10.854Z,26.20
2023-03-17T10:13:36.846Z,26.30
2023-03-17T10:14:55.750Z,26.50
2023-03-17T10:16:05.505Z,26.90
2023-03-17T10:17:18.663Z,27.20
2023-03-17T10:19:34.835Z,28.10
2023-03-17T10:20:51.517Z,28.50
2023-03-17T10:22:01.808Z,28.60
2023-03-17T10:23:08.862Z,28.50
2023-03-17T10:24:12.412Z,28.50
2023-03-17T10:25:19.749Z,28.60
2023-03-17T10:27:39.476Z,29.10
2023-03-17T10:28:43.129Z,29.40
2023-03-17T10:29:48.630Z,29.70
2023-03-17T10:30:52.878Z,30.00
2023-03-17T10:33:07.228Z,30.70
2023-03-17T10:34:16.105Z,30.90
2023-03-17T10:35:19.796Z,31.00
2023-03-17T10:36:36.582Z,30.90
2023-03-17T10:37:43.610Z,30.50
2023-03-17T10:38:52.600Z,30.00
2023-03-17T10:39:59.903Z,29.50
2023-03-17T10:41:11.259Z,29.00
2023-03-17T10:42:24.658Z,28.40
2023-03-17T10:43:31.155Z,27.80
2023-03-17T10:44:45.607Z,27.30
2023-03-17T10:45:59.611Z,26.80
2023-03-17T10:47:03.774Z,26.40
2023-03-17T10:48:09.946Z,26.10
2023-03-17T10:49:22.973Z,25.80
2023-03-17T10:50:31.420Z,25.60
2023-03-17T10:51:37.364Z,25.40
2023-03-17T10:52:42.267Z,25.20
2023-03-17T10:53:44.788Z,25.10
2023-03-17T10:54:51.481Z,24.80
2023-03-17T10:55:59.536Z,24.70
2023-03-17T10:57:08.266Z,24.50
2023-03-17T10:58:19.391Z,24.40
2023-03-17T11:00:38.855Z,24.00
2023-03-17T11:02:00.297Z,23.80
2023-03-17T11:03:15.123Z,23.60
2023-03-17T11:04:35.638Z,23.40
2023-03-17T11:05:39.754Z,23.30
2023-03-17T11:06:44.946Z,23.10
2023-03-17T11:07:48.703Z,23.00
2023-03-17T11:08:55.652Z,22.90
2023-03-17T11:10:02.467Z,22.80
2023-03-17T11:11:10.456Z,22.60
2023-03-17T11:12:26.465Z,22.50
2023-03-17T11:13:34.386Z,22.30
2023-03-17T11:14:37.568Z,22.10
2023-03-17T11:15:48.080Z,21.90
2023-03-17T11:16:55.274Z,21.70
2023-03-17T11:18:02.192Z,21.60
2023-03-17T11:19:11.823Z,21.40
2023-03-17T11:20:49.542Z,21.20
2023-03-17T11:22:05.084Z,21.10
2023-03-17T11:23:23.735Z,20.90
2023-03-17T11:24:33.707Z,20.70
2023-03-17T11:25:42.815Z,20.60
2023-03-17T11:26:53.512Z,20.60
2023-03-17T11:28:12.032Z,20.60
2023-03-17T11:29:48.154Z,20.60
2023-03-17T11:31:03.683Z,20.70
2023-03-17T11:32:27.090Z,20.80
2023-03-17T11:33:36.733Z,20.90
2023-03-17T11:34:58.733Z,21.10
2023-03-17T11:36:10.900Z,21.20
2023-03-17T11:37:31.540Z,21.40
2023-03-17T11:38:41.238Z,21.50
2023-03-17T11:39:53.344Z,21.70
2023-03-17T11:41:41.790Z,21.90
2023-03-17T11:42:59.938Z,22.10
2023-03-17T11:45:06.970Z,22.30
2023-03-17T11:46:16.032Z,22.50
2023-03-17T11:47:39.778Z,22.80
2023-03-17T11:48:55.211Z,22.90
2023-03-17T11:50:07.029Z,23.10
2023-03-17T11:51:22.985Z,23.20
2023-03-17T11:52:36.249Z,23.30
2023-03-17T11:53:56.612Z,23.40
2023-03-17T11:55:13.073Z,23.40
2023-03-17T11:56:21.814Z,23.30
2023-03-17T11:57:32.383Z,23.30
2023-03-17T11:58:42.565Z,23.20
2023-03-17T11:59:54.524Z,23.10
2023-03-17T12:01:00.846Z,23.00
2023-03-17T12:02:21.787Z,23.00
2023-03-17T12:03:35.265Z,23.00
2023-03-17T12:04:53.698Z,23.10
2023-03-17T12:06:05.601Z,23.20
2023-03-17T12:07:20.998Z,23.40
2023-03-17T12:08:36.501Z,23.50
2023-03-17T12:09:44.881Z,23.60
2023-03-17T12:10:54.224Z,23.70
2023-03-17T12:11:58.352Z,23.80
2023-03-17T12:13:08.476Z,23.90
2023-03-17T12:14:27.940Z,24.00
2023-03-17T12:15:36.844Z,24.10
2023-03-17T12:16:46.384Z,24.10
2023-03-17T12:17:59.039Z,24.00
2023-03-17T12:19:12.249Z,23.90
2023-03-17T12:20:21.357Z,23.90
2023-03-17T12:21:30.996Z,23.80
2023-03-17T12:22:42.412Z,23.80
2023-03-17T12:23:49.673Z,23.80
2023-03-17T12:25:10.940Z,23.80
2023-03-17T12:26:18.459Z,23.90
2023-03-17T12:27:29.304Z,23.90
2023-03-17T12:28:42.432Z,23.90
2023-03-17T12:29:53.451Z,23.90
2023-03-17T12:31:05.957Z,23.90
2023-03-17T12:32:17.051Z,23.90
2023-03-17T12:33:31.425Z,23.80
2023-03-17T12:34:44.737Z,23.80
2023-03-17T12:35:49.018Z,23.70
2023-03-17T12:36:56.701Z,23.70
2023-03-17T12:38:03.145Z,23.70
2023-03-17T12:39:13.358Z,23.70
2023-03-17T12:40:24.043Z,23.70
2023-03-17T12:42:05.658Z,23.60
2023-03-17T12:43:44.252Z,23.60
2023-03-17T12:45:24.111Z,23.60
2023-03-17T12:47:30.255Z,23.70
2023-03-17T12:49:30.902Z,23.60
2023-03-17T12:51:10.918Z,23.50
2023-03-17T12:52:28.138Z,23.40
2023-03-17T12:53:33.700Z,23.30
2023-03-17T12:54:39.701Z,23.20
2023-03-17T12:55:47.279Z,23.00
2023-03-17T12:56:50.760Z,22.80
2023-03-17T12:58:05.511Z,22.60
2023-03-17T12:59:17.091Z,22.50
2023-03-17T13:00:25.524Z,22.40
2023-03-17T13:01:34.566Z,22.20
2023-03-17T13:02:39.456Z,22.10
2023-03-17T13:04:15.780Z,22.00
2023-03-17T13:05:30.907Z,21.90
2023-03-17T13:06:44.100Z,21.70
2023-03-17T13:07:54.020Z,21.60
2023-03-17T13:08:57.845Z,21.50
2023-03-17T13:10:22.605Z,21.40
2023-03-17T13:11:47.706Z,21.30
2023-03-17T13:13:25.510Z,21.20
2023-03-17T13:14:43.002Z,21.10
2023-03-17T13:15:59.446Z,21.00
2023-03-17T13:17:32.048Z,20.90
2023-03-17T13:19:15.343Z,21.00
2023-03-17T13:20:20.706Z,21.00
2023-03-17T13:21:30.817Z,21.10
2023-03-17T13:22:39.193Z,21.30
2023-03-17T13:23:45.213Z,21.40
2023-03-17T13:24:52.426Z,21.60
2023-03-17T13:25:55.165Z,21.70
2023-03-17T13:27:01.688Z,21.80
2023-03-17T13:28:26.099Z,21.90
2023-03-17T13:29:48.870Z,22.10
2023-03-17T13:31:11.580Z,22.10
2023-03-17T13:32:40.740Z,22.20
2023-03-17T13:33:46.725Z,22.40
2023-03-17T13:34:55.784Z,22.50
2023-03-17T13:36:31.381Z,22.60
2023-03-17T13:37:48.479Z,22.70
2023-03-17T13:39:27.968Z,22.80
2023-03-17T13:40:42.048Z,22.80
2023-03-17T13:42:18.158Z,22.80
2023-03-17T13:43:52.602Z,22.80
2023-03-17T13:45:25.013Z,22.80
2023-03-17T13:46:41.047Z,22.70
2023-03-17T13:47:45.959Z,22.50
2023-03-17T13:48:50.265Z,22.40
2023-03-17T13:49:59.415Z,22.30
2023-03-17T13:51:15.601Z,22.20
2023-03-17T13:52:28.644Z,22.10
2023-03-17T13:53:36.134Z,22.00
2023-03-17T13:54:48.303Z,21.90
2023-03-17T13:56:25.005Z,21.80
2023-03-17T13:57:30.141Z,21.80
2023-03-17T13:58:36.141Z,21.70
2023-03-17T13:59:58.754Z,21.70
2023-03-17T14:01:07.580Z,21.60
2023-03-17T14:02:16.693Z,21.60
2023-03-17T14:03:29.066Z,21.50
2023-03-17T14:04:51.692Z,21.40
2023-03-17T14:05:56.604Z,21.40
2023-03-17T14:07:06.956Z,21.30
2023-03-17T14:08:20.340Z,21.30
2023-03-17T14:09:36.407Z,21.30
2023-03-17T14:10:39.307Z,21.30
2023-03-17T14:11:47.138Z,21.30
2023-03-17T14:13:00.626Z,21.30
2023-03-17T14:14:32.216Z,21.40
2023-03-17T14:15:48.151Z,21.40
2023-03-17T14:17:02.119Z,21.40
2023-03-17T14:18:11.485Z,21.50
2023-03-17T14:19:22.048Z,21.50
2023-03-17T14:20:28.798Z,21.60
2023-03-17T14:21:34.264Z,21.60
2023-03-17T14:22:45.423Z,21.60
2023-03-17T14:23:55.089Z,21.70
2023-03-17T14:25:03.897Z,21.70
2023-03-17T14:26:14.401Z,21.80
2023-03-17T14:27:17.298Z,21.80
2023-03-17T14:28:26.883Z,21.90
2023-03-17T14:29:33.206Z,21.90
2023-03-17T14:30:37.932Z,21.90
2023-03-17T14:31:47.468Z,22.00
2023-03-17T14:32:57.890Z,22.00
2023-03-17T14:34:03.829Z,22.00
2023-03-17T14:35:15.077Z,22.00
2023-03-17T14:36:20.544Z,22.00
2023-03-17T14:37:27.030Z,22.00
2023-03-17T14:38:33.855Z,22.00
2023-03-17T14:39:45.962Z,22.00
2023-03-17T14:40:51.142Z,22.10
2023-03-17T14:42:02.935Z,22.10
2023-03-17T14:43:06.959Z,22.20
2023-03-17T14:44:11.081Z,22.20
2023-03-17T14:45:27.770Z,22.30
2023-03-17T14:46:35.345Z,22.40
2023-03-17T14:47:43.449Z,22.50
2023-03-17T14:48:51.090Z,22.60
2023-03-17T14:49:55.157Z,22.70
2023-03-17T14:51:05.693Z,22.80
2023-03-17T14:52:22.413Z,22.80
2023-03-17T14:53:27.905Z,22.90